Time;durP1;ratioP1;P1;durP2;ratioP2;P2;SDS_P1;SDS_P2;PMS_P1;PMS_P2;Temp;Humidity;BMP_temperature;BMP_pressure;BME280_temperature;BME280_humidity;BME280_pressure;Samples;Min_cycle;Max_cycle;Signal;HPM_P1;HPM_P2
2023/09/19 00:14:59;;;;;;;;;;;;;;;23.10;87.47;99516.27;675219;1260;126887;-79
2023/09/19 00:30:04;;;;;;;;;;;;;;;22.95;88.14;99511.52;675692;1256;126218;-79
2023/09/19 00:45:11;;;;;;;;;;;;;;;22.84;88.12;99504.44;675904;1260;125620;-79
2023/09/19 01:00:15;;;;;;;;;;;;;;;22.85;87.36;99506.30;675315;1262;125581;-80
2023/09/19 01:15:19;;;;;;;;;;;;;;;22.71;87.82;99496.70;677177;1260;126841;-79
2023/09/19 01:30:24;;;;;;;;;;;;;;;22.67;88.71;99486.80;675496;1270;126077;-78
2023/09/19 01:45:34;;;;;;;;;;;;;;;22.61;88.00;99464.40;675590;1260;126102;-77
2023/09/19 02:00:40;;;;;;;;;;;;;;;22.56;86.32;99449.70;673838;1262;125357;-78
2023/09/19 02:15:46;;;;;;;;;;;;;;;22.15;86.45;99449.03;677138;1256;126085;-79
2023/09/19 02:30:50;;;;;;;;;;;;;;;21.71;89.09;99444.34;676931;1260;125983;-79
2023/09/19 02:45:53;;;;;;;;;;;;;;;21.54;90.87;99440.45;675884;1256;126348;-79
2023/09/19 03:00:57;;;;;;;;;;;;;;;21.60;90.32;99422.05;673967;1262;126297;-78
2023/09/19 03:16:01;;;;;;;;;;;;;;;21.65;90.65;99412.18;673563;1261;126551;-79
2023/09/19 03:31:05;;;;;;;;;;;;;;;21.65;90.52;99391.64;673573;1260;125436;-78
2023/09/19 03:46:12;;;;;;;;;;;;;;;21.58;91.05;99381.44;673427;1261;126537;-77
2023/09/19 04:01:18;;;;;;;;;;;;;;;21.52;92.17;99370.70;673776;1260;125280;-78
2023/09/19 04:16:21;;;;;;;;;;;;;;;21.45;92.87;99372.97;673515;1257;127011;-78
2023/09/19 04:31:25;;;;;;;;;;;;;;;21.45;92.63;99383.13;671582;1263;125102;-76
2023/09/19 04:46:28;;;;;;;;;;;;;;;21.41;93.49;99404.67;669223;1260;126230;-77
2023/09/19 05:01:32;;;;;;;;;;;;;;;21.38;95.01;99415.71;669178;1260;125938;-78
2023/09/19 05:16:35;;;;;;;;;;;;;;;21.22;98.81;99426.96;671477;1263;125632;-79
2023/09/19 05:31:40;;;;;;;;;;;;;;;20.99;100.00;99427.90;669863;1260;125405;-78
2023/09/19 05:46:45;;;;;;;;;;;;;;;20.83;100.00;99439.08;669603;1272;125793;-77
2023/09/19 06:01:48;;;;;;;;;;;;;;;21.00;100.00;99446.05;669505;1262;125644;-78
2023/09/19 06:16:54;;;;;;;;;;;;;;;21.14;100.00;99436.23;670007;1263;126807;-76
2023/09/19 06:31:57;;;;;;;;;;;;;;;21.10;100.00;99450.80;669279;1257;125468;-78
2023/09/19 06:47:01;;;;;;;;;;;;;;;21.07;100.00;99450.67;669046;1262;126215;-77
2023/09/19 07:02:05;;;;;;;;;;;;;;;21.22;100.00;99475.31;670995;1263;126806;-78
2023/09/19 07:17:12;;;;;;;;;;;;;;;21.51;100.00;99488.77;675874;1271;125738;-79
2023/09/19 07:32:18;;;;;;;;;;;;;;;21.80;100.00;99497.48;670950;1261;127834;-77
2023/09/19 07:47:21;;;;;;;;;;;;;;;21.85;100.00;99518.69;669279;1262;126111;-78
2023/09/19 08:02:25;;;;;;;;;;;;;;;21.77;100.00;99513.20;668882;1260;126067;-78
2023/09/19 08:17:29;;;;;;;;;;;;;;;22.20;100.00;99525.20;669242;1262;125771;-78
2023/09/19 08:32:33;;;;;;;;;;;;;;;22.26;100.00;99528.56;672439;1263;126001;-78
2023/09/19 08:47:43;;;;;;;;;;;;;;;22.27;100.00;99537.69;669458;1263;126835;-79
2023/09/19 09:02:47;;;;;;;;;;;;;;;22.16;100.00;99543.85;669446;1260;125730;-80
2023/09/19 09:17:52;;;;;;;;;;;;;;;22.29;100.00;99566.37;673636;1261;126781;-79
2023/09/19 09:33:14;;;;;;;;;;;;;;;22.88;100.00;99570.13;673807;1269;125146;-80
2023/09/19 09:48:31;;;;;;;;;;;;;;;23.10;100.00;99572.12;673798;1260;127026;-78
2023/09/19 10:03:54;;;;;;;;;;;;;;;23.36;100.00;99586.52;674010;1260;126879;-79
2023/09/19 10:19:01;;;;;;;;;;;;;;;23.01;100.00;99608.36;673958;1263;126618;-79
2023/09/19 10:34:05;;;;;;;;;;;;;;;22.91;100.00;99611.12;674075;1260;125575;-80
2023/09/19 10:49:11;;;;;;;;;;;;;;;22.58;100.00;99624.51;673944;1269;125933;-80
2023/09/19 11:04:24;;;;;;;;;;;;;;;22.40;100.00;99660.17;674004;1263;125719;-81
2023/09/19 11:19:48;;;;;;;;;;;;;;;22.20;100.00;99668.61;673924;1263;127613;-79
2023/09/19 11:34:51;;;;;;;;;;;;;;;23.77;99.32;99672.14;674287;1263;126173;-79
2023/09/19 11:49:55;;;;;;;;;;;;;;;24.24;94.12;99673.32;674022;1262;126277;-79
2023/09/19 12:04:59;;;;;;;;;;;;;;;24.19;93.07;99678.09;669791;1257;125904;-78
2023/09/19 12:20:16;;;;;;;;;;;;;;;24.33;92.42;99671.12;672012;1263;126564;-78
2023/09/19 12:35:30;;;;;;;;;;;;;;;25.20;89.44;99660.39;678482;1257;124940;-78
2023/09/19 12:50:33;;;;;;;;;;;;;;;25.13;88.25;99668.71;669814;1261;125750;-78
2023/09/19 13:05:50;;;;;;;;;;;;;;;25.20;85.68;99667.04;673422;1263;125988;-80
2023/09/19 13:21:14;;;;;;;;;;;;;;;25.12;83.32;99670.20;673445;1262;126007;-80
2023/09/19 13:36:18;;;;;;;;;;;;;;;25.07;79.43;99681.88;673058;1263;125911;-80
2023/09/19 13:51:25;;;;;;;;;;;;;;;24.88;79.68;99688.95;673044;1262;126045;-80
2023/09/19 14:06:28;;;;;;;;;;;;;;;25.00;78.66;99694.55;673843;1263;125189;-77
2023/09/19 14:21:31;;;;;;;;;;;;;;;25.37;73.92;99691.33;671291;1262;126610;-78
2023/09/19 14:36:35;;;;;;;;;;;;;;;25.10;68.91;99707.63;670831;1260;125369;-79
2023/09/19 14:51:44;;;;;;;;;;;;;;;24.65;68.90;99716.13;670505;1261;126019;-79
2023/09/19 15:06:48;;;;;;;;;;;;;;;24.63;66.18;99730.80;671990;1263;124774;-79
2023/09/19 15:21:51;;;;;;;;;;;;;;;24.25;61.23;99748.40;672809;1262;124875;-78
2023/09/19 15:36:54;;;;;;;;;;;;;;;23.73;60.27;99761.80;672329;1260;125021;-77
2023/09/19 15:51:58;;;;;;;;;;;;;;;23.67;61.83;99775.55;670638;1261;125217;-78
2023/09/19 16:07:01;;;;;;;;;;;;;;;22.95;63.07;99796.80;669745;1262;124964;-78
2023/09/19 16:22:04;;;;;;;;;;;;;;;22.40;64.79;99804.77;669760;1259;126478;-78
2023/09/19 16:37:07;;;;;;;;;;;;;;;21.81;66.69;99817.55;669849;1273;124777;-78
2023/09/19 16:52:11;;;;;;;;;;;;;;;21.02;69.34;99833.48;669727;1259;126087;-75
2023/09/19 17:07:15;;;;;;;;;;;;;;;20.40;71.68;99844.55;669811;1273;125010;-78
2023/09/19 17:22:18;;;;;;;;;;;;;;;19.86;73.22;99853.89;669632;1260;124865;-78
2023/09/19 17:37:21;;;;;;;;;;;;;;;19.45;74.74;99862.52;672473;1263;125536;-76
2023/09/19 17:52:27;;;;;;;;;;;;;;;19.29;75.87;99871.31;674933;1257;125873;-76
2023/09/19 18:07:30;;;;;;;;;;;;;;;18.89;77.93;99889.39;669321;1260;197035;-77
2023/09/19 18:22:34;;;;;;;;;;;;;;;18.53;80.22;99905.38;669488;1257;126149;-76
2023/09/19 18:37:37;;;;;;;;;;;;;;;18.30;81.70;99908.52;669510;1263;125845;-78
2023/09/19 18:52:41;;;;;;;;;;;;;;;18.16;82.28;99913.58;669946;1260;125229;-79
2023/09/19 19:07:45;;;;;;;;;;;;;;;17.93;83.50;99923.15;669754;1259;125542;-77
2023/09/19 19:22:48;;;;;;;;;;;;;;;17.64;84.05;99930.20;669809;1261;125272;-77
2023/09/19 19:37:51;;;;;;;;;;;;;;;17.37;85.71;99936.39;670389;1260;126010;-77
2023/09/19 19:52:57;;;;;;;;;;;;;;;17.31;85.88;99937.90;670227;1260;125564;-77
2023/09/19 20:08:01;;;;;;;;;;;;;;;17.21;86.31;99943.44;670747;1257;125357;-77
